Time;durP1;ratioP1;P1;durP2;ratioP2;P2;SDS_P1;SDS_P2;PMS_P1;PMS_P2;Temp;Humidity;BMP_temperature;BMP_pressure;BME280_temperature;BME280_humidity;BME280_pressure;Samples;Min_cycle;Max_cycle;Signal;HPM_P1;HPM_P2
2022/04/24 00:00:39;;;;;;;6.43;5.20;;;;;;;12.05;55.07;100500.53;5006700;28;20062;-57
2022/04/24 00:03:04;;;;;;;5.65;4.75;;;;;;;11.97;55.93;100507.03;5006134;28;20100;-58
2022/04/24 00:05:30;;;;;;;5.60;4.78;;;;;;;11.86;56.36;100504.03;5006206;28;20030;-59
2022/04/24 00:07:55;;;;;;;12.25;4.82;;;;;;;11.81;56.55;100503.38;5007383;28;20121;-57
2022/04/24 00:10:20;;;;;;;5.75;4.68;;;;;;;11.85;56.66;100504.94;5006397;28;20056;-59
2022/04/24 00:12:46;;;;;;;6.63;4.90;;;;;;;11.83;56.66;100506.81;5007422;28;20036;-59
2022/04/24 00:15:12;;;;;;;12.77;5.30;;;;;;;11.74;57.55;100502.78;5007449;28;20025;-59
2022/04/24 00:17:37;;;;;;;6.15;5.10;;;;;;;11.72;57.19;100512.56;5006218;28;20492;-58
2022/04/24 00:20:03;;;;;;;5.45;4.88;;;;;;;11.76;57.28;100506.19;5005933;28;20096;-57
2022/04/24 00:22:29;;;;;;;5.22;4.72;;;;;;;11.68;57.43;100509.19;5005324;28;20134;-58
2022/04/24 00:24:54;;;;;;;7.07;5.63;;;;;;;11.56;57.75;100500.00;5006942;28;20106;-58
2022/04/24 00:27:19;;;;;;;7.07;5.60;;;;;;;11.53;58.18;100501.94;5005185;28;20108;-58
2022/04/24 00:29:45;;;;;;;8.65;5.50;;;;;;;11.60;57.29;100496.34;5006224;28;20097;-58
2022/04/24 00:32:10;;;;;;;5.82;5.20;;;;;;;11.51;58.09;100491.47;5006081;28;20030;-58
2022/04/24 00:34:35;;;;;;;7.18;5.90;;;;;;;11.52;57.98;100498.44;5005992;28;20026;-58
2022/04/24 00:37:01;;;;;;;6.13;5.32;;;;;;;11.38;59.35;100499.88;5006343;28;20030;-58
2022/04/24 00:39:26;;;;;;;8.07;5.72;;;;;;;11.32;59.17;100497.50;5006879;28;20018;-57
2022/04/24 00:41:52;;;;;;;8.10;5.75;;;;;;;11.41;58.76;100490.16;5005882;28;20052;-58
2022/04/24 00:44:18;;;;;;;6.80;5.90;;;;;;;11.28;59.48;100495.06;5005948;28;20030;-57
2022/04/24 00:46:49;;;;;;;8.05;6.45;;;;;;;11.20;59.40;100492.78;5006018;28;20026;-58
2022/04/24 00:49:14;;;;;;;8.65;6.45;;;;;;;11.25;59.09;100490.78;5006378;28;20065;-58
2022/04/24 00:51:40;;;;;;;6.35;5.75;;;;;;;11.31;59.11;100490.53;5009769;28;20108;-58
2022/04/24 00:54:07;;;;;;;7.00;6.30;;;;;;;11.17;60.01;100492.91;5009381;28;20488;-58
2022/04/24 00:56:33;;;;;;;13.05;5.88;;;;;;;11.25;59.64;100491.66;5008885;28;20139;-59
2022/04/24 00:58:58;;;;;;;7.15;5.93;;;;;;;11.26;59.71;100484.59;5010774;28;20026;-58
2022/04/24 01:01:24;;;;;;;7.22;5.90;;;;;;;11.25;59.84;100480.22;5009251;28;20524;-57
2022/04/24 01:03:50;;;;;;;6.78;5.80;;;;;;;11.19;59.94;100484.00;5010181;28;20013;-58
2022/04/24 01:06:15;;;;;;;10.77;5.72;;;;;;;11.17;59.51;100485.81;5009654;28;20061;-59
2022/04/24 01:08:40;;;;;;;7.68;6.32;;;;;;;11.19;59.55;100491.03;5010129;28;20053;-61
2022/04/24 01:11:06;;;;;;;6.70;5.82;;;;;;;11.09;60.03;100483.53;5009722;28;20507;-59
2022/04/24 01:13:31;;;;;;;6.53;5.85;;;;;;;11.19;59.73;100483.13;5172139;23;20052;-59
2022/04/24 01:15:57;;;;;;;10.10;6.28;;;;;;;10.97;59.81;100487.53;5030337;28;20029;-57
2022/04/24 01:18:23;;;;;;;14.40;6.32;;;;;;;11.14;59.59;100480.72;5028862;28;20080;-59
2022/04/24 01:20:49;;;;;;;8.63;5.82;;;;;;;11.03;60.34;100481.16;5030368;28;20471;-57
2022/04/24 01:23:14;;;;;;;9.68;6.60;;;;;;;11.11;59.99;100484.31;5028530;28;20064;-56
2022/04/24 01:25:39;;;;;;;7.85;6.65;;;;;;;11.09;60.13;100483.53;5028665;28;20953;-59
2022/04/24 01:28:08;;;;;;;10.07;6.88;;;;;;;11.01;60.42;100482.97;5029263;28;20024;-59
2022/04/24 01:30:34;;;;;;;11.73;6.97;;;;;;;11.06;60.74;100488.94;5028584;28;20068;-58
2022/04/24 01:32:59;;;;;;;8.45;7.20;;;;;;;11.03;61.00;100490.81;5028603;28;20124;-56
2022/04/24 01:35:25;;;;;;;8.40;7.10;;;;;;;11.09;61.03;100493.22;5029456;28;20033;-58
2022/04/24 01:37:51;;;;;;;8.63;6.93;;;;;;;11.07;61.27;100488.00;5029435;28;20083;-59
2022/04/24 01:40:16;;;;;;;8.73;6.80;;;;;;;11.07;61.44;100488.00;5030259;28;20018;-58
2022/04/24 01:42:42;;;;;;;11.40;7.95;;;;;;;10.97;61.57;100491.94;5029145;28;20025;-59
2022/04/24 01:45:07;;;;;;;12.60;7.63;;;;;;;11.04;61.75;100484.63;5029504;28;20099;-59
2022/04/24 01:47:32;;;;;;;9.68;8.68;;;;;;;10.91;62.58;100479.00;5028087;28;20033;-59
2022/04/24 01:49:58;;;;;;;9.63;8.15;;;;;;;10.96;62.85;100482.31;5027709;28;20379;-59
2022/04/24 01:52:24;;;;;;;10.30;8.50;;;;;;;10.98;62.98;100485.75;5028465;28;20040;-59
2022/04/24 01:54:49;;;;;;;8.98;7.43;;;;;;;11.05;62.96;100484.56;5029790;28;20056;-58
2022/04/24 01:57:14;;;;;;;9.75;8.70;;;;;;;10.91;63.99;100490.44;5028649;28;20056;-58
2022/04/24 01:59:40;;;;;;;14.50;9.10;;;;;;;10.83;64.63;100487.22;5029036;28;20104;-59
2022/04/24 02:02:05;;;;;;;11.02;9.05;;;;;;;10.78;64.54;100479.53;5027883;28;20406;-57
2022/04/24 02:04:30;;;;;;;16.40;9.68;;;;;;;10.73;65.38;100485.00;5028653;28;20083;-58
2022/04/24 02:06:56;;;;;;;11.20;9.50;;;;;;;10.67;65.83;100479.09;5028328;28;20447;-59
2022/04/24 02:09:21;;;;;;;15.98;10.80;;;;;;;10.77;65.53;100479.59;5029298;28;20041;-59
2022/04/24 02:11:46;;;;;;;12.75;10.32;;;;;;;10.76;65.63;100493.66;5028003;28;20048;-58
2022/04/24 02:14:12;;;;;;;13.40;10.43;;;;;;;10.72;65.72;100493.78;5029219;28;20064;-58
2022/04/24 02:16:37;;;;;;;13.52;10.05;;;;;;;10.79;65.52;100494.41;5027709;28;20415;-56
2022/04/24 02:19:02;;;;;;;13.00;9.85;;;;;;;10.80;65.70;100490.84;5027564;28;20486;-59
2022/04/24 02:21:28;;;;;;;14.05;10.70;;;;;;;10.84;65.39;100499.50;5027749;28;20112;-59
2022/04/24 02:23:54;;;;;;;12.88;10.00;;;;;;;10.72;66.02;100495.59;5028457;28;20025;-59
2022/04/24 02:26:19;;;;;;;15.90;11.50;;;;;;;10.64;66.63;100497.66;5028725;28;20533;-58
2022/04/24 02:28:45;;;;;;;15.90;11.70;;;;;;;10.55;67.12;100507.66;5028297;28;20109;-57
2022/04/24 02:31:10;;;;;;;18.15;11.70;;;;;;;10.55;67.04;100504.16;5027500;28;20053;-58
2022/04/24 02:33:36;;;;;;;14.20;11.77;;;;;;;10.52;67.04;100497.22;5026343;28;20033;-57
2022/04/24 02:36:01;;;;;;;17.77;11.95;;;;;;;10.41;67.96;100496.78;5026998;28;20108;-58
2022/04/24 02:38:26;;;;;;;18.45;11.30;;;;;;;10.35;67.47;100496.06;5026734;28;20029;-59
2022/04/24 02:40:52;;;;;;;15.10;11.50;;;;;;;10.24;68.01;100493.84;5027554;28;20420;-58
2022/04/24 02:43:17;;;;;;;14.20;11.77;;;;;;;10.25;68.22;100499.97;5027074;28;20517;-60
2022/04/24 02:45:43;;;;;;;20.00;11.80;;;;;;;10.20;68.19;100494.00;5028694;28;20033;-59
2022/04/24 02:48:08;;;;;;;15.90;12.05;;;;;;;10.19;68.43;100506.34;5025265;28;20026;-59
2022/04/24 02:50:34;;;;;;;13.93;10.98;;;;;;;10.31;67.99;100490.97;5028516;28;20463;-58
2022/04/24 02:52:59;;;;;;;14.32;11.63;;;;;;;10.11;68.67;100498.72;5027713;28;20099;-58
2022/04/24 02:55:25;;;;;;;17.40;11.95;;;;;;;10.09;68.57;100503.19;5027834;28;20120;-58
2022/04/24 02:57:51;;;;;;;23.35;12.95;;;;;;;10.12;68.61;100510.13;5027361;28;20064;-58
2022/04/24 03:00:22;;;;;;;14.77;11.45;;;;;;;10.16;68.90;100508.22;5028124;28;20059;-57
2022/04/24 03:02:49;;;;;;;13.57;10.55;;;;;;;10.20;68.39;100512.44;5025949;28;20117;-58
2022/04/24 03:05:16;;;;;;;14.02;10.55;;;;;;;10.17;68.50;100509.97;5027407;28;22016;-58
2022/04/24 03:07:42;;;;;;;16.42;12.10;;;;;;;10.07;69.30;100510.28;5028163;28;20029;-58
2022/04/24 03:10:08;;;;;;;14.00;10.80;;;;;;;10.17;68.77;100509.97;5026470;28;20384;-57
2022/04/24 03:12:34;;;;;;;17.45;11.80;;;;;;;10.06;69.22;100502.44;5027605;28;20427;-57
2022/04/24 03:15:00;;;;;;;14.55;10.82;;;;;;;10.11;68.80;100501.34;5024616;28;20518;-59
2022/04/24 03:17:25;;;;;;;21.45;12.07;;;;;;;10.07;68.93;100506.78;5026457;28;20108;-59
2022/04/24 03:19:50;;;;;;;17.65;10.90;;;;;;;10.16;68.43;100497.69;5027889;28;20017;-60
2022/04/24 03:22:17;;;;;;;15.07;10.93;;;;;;;10.09;68.49;100497.91;5026649;28;20033;-58
2022/04/24 03:24:42;;;;;;;14.00;10.38;;;;;;;10.20;68.11;100509.81;5027633;28;20029;-56
2022/04/24 03:27:07;;;;;;;15.43;10.82;;;;;;;10.10;68.38;100509.31;5026690;28;20064;-57
2022/04/24 03:29:32;;;;;;;13.38;9.57;;;;;;;10.24;68.06;100509.63;5026743;28;20136;-58
2022/04/24 03:31:58;;;;;;;13.75;11.05;;;;;;;10.20;67.92;100505.41;5026748;28;20529;-57
2022/04/24 03:34:23;;;;;;;14.98;9.82;;;;;;;10.21;67.59;100506.28;5024703;28;20034;-59
2022/04/24 03:36:48;;;;;;;14.32;10.48;;;;;;;10.19;67.94;100505.47;5026552;28;20025;-58
2022/04/24 03:39:14;;;;;;;13.77;10.38;;;;;;;10.09;67.71;100505.81;5025249;28;20024;-58
2022/04/24 03:41:41;;;;;;;12.13;10.18;;;;;;;9.97;68.16;100495.75;5025691;28;20056;-59
2022/04/24 03:44:06;;;;;;;19.50;10.25;;;;;;;9.85;68.59;100497.91;5026237;28;20036;-55
2022/04/24 03:46:32;;;;;;;15.70;9.77;;;;;;;10.04;68.05;100494.59;5025069;28;20041;-57
2022/04/24 03:48:57;;;;;;;12.70;10.13;;;;;;;10.02;68.09;100492.97;5023351;28;20251;-57
2022/04/24 03:51:22;;;;;;;13.93;9.80;;;;;;;10.07;67.95;100497.13;5026850;28;20467;-57
2022/04/24 03:53:47;;;;;;;13.20;9.77;;;;;;;10.02;68.04;100496.44;5027647;28;20037;-56
2022/04/24 03:56:13;;;;;;;12.05;10.07;;;;;;;9.95;68.13;100493.19;5026889;28;20017;-56
2022/04/24 03:58:38;;;;;;;12.25;9.55;;;;;;;9.86;68.36;100494.38;5026908;28;20487;-59
2022/04/24 04:01:03;;;;;;;18.58;9.77;;;;;;;9.98;68.21;100497.47;5027249;28;20025;-59
2022/04/24 04:03:29;;;;;;;12.57;9.38;;;;;;;10.02;68.19;100501.69;5025750;28;20077;-58
2022/04/24 04:05:54;;;;;;;14.10;8.90;;;;;;;9.83;68.62;100505.00;5027117;28;20075;-61
2022/04/24 04:08:19;;;;;;;12.55;8.68;;;;;;;9.95;67.98;100500.22;5027349;28;20021;-59
2022/04/24 04:10:45;;;;;;;10.13;8.27;;;;;;;9.96;67.76;100491.38;5025450;28;20030;-58
2022/04/24 04:13:10;;;;;;;13.27;8.52;;;;;;;9.93;67.87;100496.78;5026761;28;20056;-58
2022/04/24 04:15:36;;;;;;;12.48;9.35;;;;;;;9.89;67.99;100497.78;5026518;28;20039;-59
2022/04/24 04:18:02;;;;;;;15.25;8.80;;;;;;;9.84;68.18;100497.97;5026026;28;20063;-58
2022/04/24 04:20:27;;;;;;;12.88;8.90;;;;;;;9.86;68.02;100498.78;5026698;28;20064;-57
2022/04/24 04:22:52;;;;;;;12.40;9.18;;;;;;;9.73;68.53;100495.72;5026756;28;20030;-58
2022/04/24 04:25:22;;;;;;;11.80;9.18;;;;;;;9.79;68.29;100499.91;5025977;28;20036;-57
2022/04/24 04:27:48;;;;;;;10.63;7.75;;;;;;;9.83;68.24;100496.25;5027064;28;20036;-58
2022/04/24 04:30:13;;;;;;;13.98;9.02;;;;;;;9.83;68.21;100498.88;5026736;28;20411;-56
2022/04/24 04:32:39;;;;;;;11.68;9.23;;;;;;;9.80;68.29;100505.13;5025442;28;20028;-59
2022/04/24 04:35:05;;;;;;;10.05;8.85;;;;;;;9.77;68.24;100510.50;5025325;28;20026;-58
2022/04/24 04:37:32;;;;;;;9.38;7.97;;;;;;;9.92;67.77;100513.47;5026435;28;20049;-58
2022/04/24 04:39:57;;;;;;;14.45;8.68;;;;;;;9.66;68.56;100515.28;5026489;28;20068;-57
2022/04/24 04:42:23;;;;;;;11.23;8.35;;;;;;;9.75;68.35;100512.31;5025812;28;20072;-59
2022/04/24 04:44:48;;;;;;;11.85;7.75;;;;;;;9.87;68.12;100516.25;5027054;28;20030;-59
2022/04/24 04:47:13;;;;;;;9.20;8.18;;;;;;;9.71;68.28;100522.09;5025282;28;20037;-59
2022/04/24 04:49:38;;;;;;;10.18;8.52;;;;;;;9.64;68.74;100520.59;5024809;28;20496;-58
2022/04/24 04:52:04;;;;;;;11.52;8.00;;;;;;;9.51;69.09;100519.31;5022687;28;20029;-57
2022/04/24 04:54:30;;;;;;;11.45;7.72;;;;;;;9.60;68.89;100526.84;5007262;28;20029;-60
2022/04/24 04:56:55;;;;;;;23.92;8.55;;;;;;;9.51;69.06;100521.94;5024069;28;20037;-58
2022/04/24 04:59:20;;;;;;;12.68;8.38;;;;;;;9.61;68.52;100520.72;5024234;28;20038;-59
2022/04/24 05:01:46;;;;;;;14.10;8.10;;;;;;;9.70;68.33;100524.78;5024255;28;20642;-57
2022/04/24 05:04:11;;;;;;;9.50;7.13;;;;;;;9.69;68.33;100534.44;5023008;28;20029;-58
2022/04/24 05:06:37;;;;;;;10.73;8.30;;;;;;;9.54;68.41;100535.81;5026122;28;20053;-57
2022/04/24 05:09:04;;;;;;;9.23;7.63;;;;;;;9.59;68.27;100539.16;5026465;28;20029;-56
2022/04/24 05:11:29;;;;;;;11.27;8.13;;;;;;;9.58;68.20;100536.59;5025706;28;20022;-56
2022/04/24 05:13:54;;;;;;;14.25;8.25;;;;;;;9.71;67.99;100537.00;5025847;28;20054;-59
2022/04/24 05:16:20;;;;;;;13.75;8.40;;;;;;;9.63;67.99;100541.69;5025271;28;20022;-59
2022/04/24 05:18:45;;;;;;;11.13;7.68;;;;;;;9.69;68.04;100549.38;5025808;28;20028;-56
2022/04/24 05:21:10;;;;;;;10.55;7.55;;;;;;;9.74;68.21;100552.69;5025096;28;20054;-56
2022/04/24 05:23:36;;;;;;;11.10;7.22;;;;;;;9.72;68.19;100554.50;5025814;28;20030;-56
2022/04/24 05:26:01;;;;;;;9.88;8.02;;;;;;;9.80;67.95;100555.13;5025582;28;20038;-57
2022/04/24 05:28:26;;;;;;;13.52;7.15;;;;;;;9.77;68.20;100555.22;5025940;28;20040;-58
2022/04/24 05:30:52;;;;;;;12.10;7.35;;;;;;;9.83;67.78;100557.66;5024953;28;20022;-59
2022/04/24 05:33:18;;;;;;;11.15;7.18;;;;;;;9.86;67.60;100557.53;5025496;28;20097;-60
2022/04/24 05:35:43;;;;;;;9.10;7.40;;;;;;;9.82;67.82;100561.16;5026188;28;20543;-58
2022/04/24 05:38:08;;;;;;;11.48;7.82;;;;;;;10.02;67.29;100556.13;5028987;28;20092;-58
2022/04/24 05:40:34;;;;;;;12.60;7.55;;;;;;;10.06;66.92;100558.56;5029234;28;20524;-57
2022/04/24 05:42:59;;;;;;;13.45;7.53;;;;;;;9.96;67.16;100560.69;5029202;28;20847;-59
2022/04/24 05:45:24;;;;;;;12.70;6.80;;;;;;;10.00;66.97;100558.81;5029433;28;20069;-57
2022/04/24 05:47:51;;;;;;;8.77;6.97;;;;;;;9.98;67.34;100560.63;5029517;28;20450;-58
2022/04/24 05:50:16;;;;;;;8.60;6.65;;;;;;;10.19;66.78;100558.13;5029698;28;20105;-56
2022/04/24 05:52:41;;;;;;;11.38;6.82;;;;;;;10.17;66.79;100565.25;5029125;28;20563;-55
2022/04/24 05:55:07;;;;;;;9.07;6.60;;;;;;;10.20;66.32;100570.38;5029520;28;20590;-57
2022/04/24 05:57:36;;;;;;;8.57;6.72;;;;;;;10.31;65.98;100567.34;5028320;28;20498;-58
2022/04/24 06:00:09;;;;;;;10.23;7.20;;;;;;;10.26;65.88;100572.78;5029442;28;20021;-58
2022/04/24 06:02:34;;;;;;;8.27;6.30;;;;;;;10.42;65.57;100564.31;5023079;28;20143;-57
2022/04/24 06:05:00;;;;;;;10.70;7.03;;;;;;;10.29;66.00;100575.31;5028215;28;20484;-57
2022/04/24 06:07:25;;;;;;;10.07;6.60;;;;;;;10.42;65.59;100572.22;5028267;28;20048;-57
2022/04/24 06:09:51;;;;;;;10.63;6.70;;;;;;;10.55;65.31;100575.28;5028171;28;20064;-60
2022/04/24 06:12:17;;;;;;;7.97;6.70;;;;;;;10.55;65.01;100581.41;5024699;28;20137;-60
2022/04/24 06:14:42;;;;;;;7.18;6.45;;;;;;;10.66;64.87;100582.78;5028338;28;20136;-57
2022/04/24 06:17:08;;;;;;;8.18;6.72;;;;;;;10.64;64.78;100581.97;5027592;28;20133;-58
2022/04/24 06:19:33;;;;;;;16.08;6.53;;;;;;;10.55;64.19;100586.69;5026980;28;20029;-59
2022/04/24 06:21:59;;;;;;;9.85;6.53;;;;;;;10.58;64.32;100583.06;5028711;28;20464;-56
2022/04/24 06:24:24;;;;;;;6.72;6.00;;;;;;;10.89;63.71;100581.03;5026541;28;20041;-60
2022/04/24 06:26:50;;;;;;;6.72;5.85;;;;;;;11.02;63.50;100586.66;5027903;28;20773;-55
2022/04/24 06:29:15;;;;;;;7.65;6.22;;;;;;;11.25;62.81;100586.59;5028221;28;20025;-54
2022/04/24 06:31:41;;;;;;;8.05;6.35;;;;;;;11.18;63.61;100586.91;5023774;28;20026;-58
2022/04/24 06:34:06;;;;;;;6.75;5.90;;;;;;;11.28;62.91;100590.88;5026865;28;20048;-61
2022/04/24 06:36:31;;;;;;;8.68;6.28;;;;;;;11.29;62.93;100592.59;5027815;28;20029;-60
2022/04/24 06:38:57;;;;;;;9.52;5.88;;;;;;;11.30;62.59;100589.06;5026683;28;20021;-60
2022/04/24 06:41:22;;;;;;;8.82;6.22;;;;;;;11.10;62.35;100595.13;5026820;28;20044;-60
2022/04/24 06:43:47;;;;;;;6.70;5.88;;;;;;;11.08;62.54;100592.53;5028003;28;20016;-61
2022/04/24 06:46:13;;;;;;;9.02;5.70;;;;;;;11.20;62.23;100596.47;5027849;28;20053;-55
2022/04/24 06:48:38;;;;;;;6.60;5.90;;;;;;;11.13;62.50;100597.63;5026352;28;20033;-59
2022/04/24 06:51:03;;;;;;;7.55;6.30;;;;;;;11.15;62.67;100593.16;5023090;28;20064;-55
2022/04/24 06:53:30;;;;;;;9.68;6.97;;;;;;;11.09;62.18;100596.91;5026862;28;20033;-57
2022/04/24 06:55:56;;;;;;;10.60;6.75;;;;;;;11.41;61.59;100606.22;5027077;28;20021;-56
2022/04/24 06:58:21;;;;;;;8.95;6.45;;;;;;;11.56;61.27;100595.00;5026040;28;20014;-60
2022/04/24 07:00:49;;;;;;;7.07;5.82;;;;;;;11.57;60.98;100599.38;5028040;28;20033;-51
2022/04/24 07:03:22;;;;;;;10.50;6.28;;;;;;;11.74;60.90;100600.44;5026474;28;20456;-54
2022/04/24 07:05:49;;;;;;;7.88;5.80;;;;;;;11.72;59.54;100600.53;5027551;28;20033;-55
2022/04/24 07:08:14;;;;;;;6.88;6.10;;;;;;;11.80;59.75;100597.53;5027185;28;20056;-54
2022/04/24 07:10:39;;;;;;;6.47;5.72;;;;;;;11.93;60.05;100610.22;5022938;28;20696;-54
2022/04/24 07:13:05;;;;;;;12.10;6.13;;;;;;;12.13;59.08;100609.34;5026454;28;20056;-56
2022/04/24 07:15:35;;;;;;;8.50;5.75;;;;;;;12.13;59.37;100604.94;5026969;28;20116;-54
2022/04/24 07:18:01;;;;;;;7.32;5.78;;;;;;;12.02;59.62;100609.81;5023859;28;20464;-51
2022/04/24 07:20:29;;;;;;;6.75;5.97;;;;;;;12.05;59.27;100611.47;5025189;28;20111;-52
2022/04/24 07:22:57;;;;;;;10.85;6.43;;;;;;;12.06;58.77;100616.66;5023123;28;20040;-55
2022/04/24 07:25:25;;;;;;;8.40;6.38;;;;;;;11.79;59.56;100611.66;5026646;28;20045;-61
2022/04/24 07:27:51;;;;;;;13.95;6.93;;;;;;;11.96;59.22;100612.72;5026051;28;20388;-58
2022/04/24 07:30:18;;;;;;;8.73;6.35;;;;;;;12.07;59.00;100620.22;5027557;28;20037;-57
2022/04/24 07:32:45;;;;;;;8.13;6.35;;;;;;;12.02;59.25;100609.81;5026950;28;20036;-58
2022/04/24 07:35:13;;;;;;;8.27;5.90;;;;;;;12.06;58.98;100615.81;5026235;28;20049;-59
2022/04/24 07:37:38;;;;;;;8.55;6.03;;;;;;;11.87;58.69;100614.81;5023239;28;20054;-64
2022/04/24 07:40:08;;;;;;;8.20;5.93;;;;;;;11.98;58.84;100618.81;5027293;28;20029;-58
2022/04/24 07:42:45;;;;;;;8.02;5.40;;;;;;;12.01;59.14;100618.63;5025840;28;20053;-57
2022/04/24 07:45:11;;;;;;;10.55;5.75;;;;;;;12.15;58.91;100622.50;5025547;28;20634;-57
2022/04/24 07:47:36;;;;;;;7.18;5.70;;;;;;;12.11;59.31;100620.00;5025270;28;20039;-58
2022/04/24 07:50:01;;;;;;;10.57;6.10;;;;;;;12.09;59.23;100624.50;5026309;28;20468;-59
2022/04/24 07:52:27;;;;;;;7.63;5.75;;;;;;;12.18;58.31;100623.22;5026624;28;20029;-59
2022/04/24 07:54:52;;;;;;;10.60;6.22;;;;;;;12.26;58.11;100628.19;4995798;28;20535;-59
2022/04/24 07:57:17;;;;;;;8.95;5.85;;;;;;;12.30;57.66;100624.47;4998899;28;20039;-58
2022/04/24 07:59:43;;;;;;;7.45;6.00;;;;;;;12.38;58.65;100629.41;4996902;28;20059;-60
2022/04/24 08:02:10;;;;;;;7.72;5.47;;;;;;;12.52;58.00;100623.47;5006740;28;20034;-60
2022/04/24 08:04:35;;;;;;;8.35;6.13;;;;;;;12.66;57.20;100635.22;5006145;28;20033;-58
2022/04/24 08:07:00;;;;;;;6.70;5.90;;;;;;;12.37;58.56;100639.13;5006479;28;20031;-58
2022/04/24 08:09:26;;;;;;;7.50;5.50;;;;;;;12.73;57.60;100634.88;5004290;28;20037;-58
2022/04/24 08:11:51;;;;;;;6.85;5.85;;;;;;;12.68;57.15;100641.28;5013044;28;20025;-57
2022/04/24 08:14:19;;;;;;;9.80;5.47;;;;;;;12.63;57.13;100638.88;5026430;28;20045;-57
2022/04/24 08:16:45;;;;;;;8.35;5.53;;;;;;;12.83;56.22;100642.38;5006700;28;20029;-58
2022/04/24 08:19:10;;;;;;;6.93;5.75;;;;;;;12.58;57.06;100636.41;5005264;28;20113;-58
2022/04/24 08:21:35;;;;;;;8.80;5.43;;;;;;;12.70;56.83;100639.44;5006715;28;20072;-59
2022/04/24 08:24:01;;;;;;;8.45;5.72;;;;;;;12.78;56.35;100642.59;5005762;28;20432;-59
2022/04/24 08:26:26;;;;;;;8.10;5.82;;;;;;;12.74;56.17;100643.66;4990934;28;20038;-58
2022/04/24 08:28:52;;;;;;;6.57;5.20;;;;;;;13.14;55.20;100651.50;4987172;28;20476;-59
2022/04/24 08:31:17;;;;;;;10.13;5.30;;;;;;;13.02;55.23;100645.00;4987461;28;20428;-58
2022/04/24 08:33:42;;;;;;;6.53;5.53;;;;;;;13.13;55.05;100648.00;4985691;28;20025;-58
2022/04/24 08:36:07;;;;;;;6.05;5.45;;;;;;;13.23;55.06;100643.13;4996053;28;20476;-60
2022/04/24 08:38:33;;;;;;;6.53;5.57;;;;;;;13.50;54.69;100644.53;5007539;28;20120;-58
2022/04/24 08:40:59;;;;;;;8.15;5.47;;;;;;;13.34;54.52;100649.69;5005009;28;20495;-59
2022/04/24 08:43:24;;;;;;;5.85;5.10;;;;;;;13.54;54.37;100650.53;5005950;28;20026;-59
2022/04/24 08:45:51;;;;;;;7.60;5.32;;;;;;;13.54;54.41;100648.72;5005294;28;20486;-58
2022/04/24 08:48:21;;;;;;;11.45;5.90;;;;;;;13.70;53.87;100650.63;5012388;28;20057;-58
2022/04/24 08:50:46;;;;;;;;;;;;;;;13.58;54.95;100654.75;5026831;28;20021;-58
2022/04/24 08:53:12;;;;;;;6.63;5.35;;;;;;;14.00;54.52;100661.44;5026949;28;19913;-58
2022/04/24 08:55:38;;;;;;;11.82;5.47;;;;;;;13.89;54.17;100662.00;5012900;28;20034;-59
2022/04/24 08:58:04;;;;;;;5.93;5.32;;;;;;;13.81;53.97;100669.47;5005953;28;20574;-59
2022/04/24 09:00:29;;;;;;;6.97;5.68;;;;;;;14.10;53.82;100666.28;5006354;28;20527;-57
2022/04/24 09:02:57;;;;;;;7.00;5.32;;;;;;;14.17;53.37;100664.19;4995188;28;20499;-58
2022/04/24 09:05:23;;;;;;;6.65;5.82;;;;;;;13.98;53.50;100665.97;5006117;28;20155;-58
2022/04/24 09:07:52;;;;;;;10.85;5.70;;;;;;;13.90;53.45;100670.78;5005089;28;20030;-56
2022/04/24 09:10:17;;;;;;;7.53;4.70;;;;;;;14.27;53.40;100660.09;5005235;28;20092;-60
2022/04/24 09:12:42;;;;;;;8.05;5.70;;;;;;;14.60;53.75;100653.91;5010520;28;20034;-58
2022/04/24 09:15:08;;;;;;;6.75;6.00;;;;;;;14.31;54.09;100661.66;5010152;28;20052;-58
2022/04/24 09:17:34;;;;;;;6.45;5.32;;;;;;;14.23;54.88;100670.00;4991220;28;20045;-61
2022/04/24 09:20:01;;;;;;;6.60;5.90;;;;;;;13.97;54.13;100660.75;5009823;28;20079;-56
2022/04/24 09:22:26;;;;;;;7.25;5.93;;;;;;;14.22;53.86;100665.66;5009180;28;20025;-61
2022/04/24 09:24:56;;;;;;;8.35;6.00;;;;;;;13.98;53.94;100662.47;5010140;28;20030;-58
2022/04/24 09:27:24;;;;;;;6.95;5.72;;;;;;;14.29;54.01;100663.50;5006706;28;20044;-58
2022/04/24 09:29:55;;;;;;;10.07;6.20;;;;;;;14.42;54.76;100663.72;5009918;28;20033;-58
2022/04/24 09:32:22;;;;;;;12.23;6.13;;;;;;;14.81;54.46;100669.63;5007893;28;20029;-58
2022/04/24 09:34:47;;;;;;;8.75;5.93;;;;;;;14.69;53.85;100672.94;5009343;28;20030;-59
2022/04/24 09:37:13;;;;;;;10.13;5.68;;;;;;;14.84;53.84;100674.78;5009392;28;20387;-57
2022/04/24 09:39:38;;;;;;;9.35;5.63;;;;;;;14.91;53.50;100672.66;5010181;28;20922;-59
2022/04/24 09:42:11;;;;;;;9.32;5.70;;;;;;;14.91;54.19;100670.84;5007511;28;20036;-59
2022/04/24 09:44:47;;;;;;;10.05;6.03;;;;;;;14.73;53.86;100675.34;5004013;28;20037;-58
2022/04/24 09:47:13;;;;;;;7.22;5.65;;;;;;;14.80;52.97;100670.59;5002685;28;20033;-59
2022/04/24 09:49:42;;;;;;;6.25;5.65;;;;;;;14.96;53.58;100673.25;5026501;28;20025;-58
2022/04/24 09:52:10;;;;;;;12.38;5.60;;;;;;;14.87;54.47;100674.63;5029556;28;20025;-58
2022/04/24 09:54:43;;;;;;;8.77;6.30;;;;;;;15.24;53.67;100676.16;5022020;28;20472;-60
2022/04/24 09:57:09;;;;;;;10.95;6.38;;;;;;;15.51;53.23;100672.88;5018659;28;20036;-58
2022/04/24 09:59:36;;;;;;;7.45;6.07;;;;;;;15.56;51.84;100678.78;5028685;28;20484;-58
2022/04/24 10:02:03;;;;;;;6.82;5.88;;;;;;;15.57;53.16;100677.84;5027896;28;20100;-60
2022/04/24 10:04:28;;;;;;;7.88;6.05;;;;;;;15.29;53.46;100690.03;5028599;28;20028;-58
2022/04/24 10:06:54;;;;;;;11.00;6.05;;;;;;;15.26;51.92;100685.75;5028375;28;20025;-59
2022/04/24 10:09:20;;;;;;;7.82;5.32;;;;;;;15.39;51.40;100679.75;5028475;28;20079;-56
2022/04/24 10:11:46;;;;;;;9.18;5.63;;;;;;;15.60;52.17;100682.13;5027274;28;20052;-59
2022/04/24 10:14:14;;;;;;;11.82;6.13;;;;;;;15.21;53.13;100686.97;5027991;28;20045;-58
2022/04/24 10:16:58;;;;;;;10.02;6.68;;;;;;;15.52;53.22;100690.53;5026822;28;20074;-59
2022/04/24 10:19:48;;;;;;;10.90;6.15;;;;;;;15.18;53.35;100690.66;5026280;28;20507;-58
2022/04/24 10:22:36;;;;;;;9.38;6.53;;;;;;;15.25;53.24;100685.84;5018306;28;20129;-57
2022/04/24 10:25:03;;;;;;;11.52;6.28;;;;;;;15.52;52.80;100685.22;5017700;28;20511;-56
2022/04/24 10:28:10;;;;;;;8.18;5.93;;;;;;;15.60;52.77;100687.44;5023361;28;20045;-55
2022/04/24 10:30:36;;;;;;;11.00;6.45;;;;;;;15.56;52.21;100684.09;5020757;28;20038;-60
2022/04/24 10:33:15;;;;;;;9.88;6.05;;;;;;;15.67;52.57;100694.09;5027161;28;20037;-56
2022/04/24 10:35:49;;;;;;;13.07;6.18;;;;;;;15.28;52.06;100689.19;5027960;28;20578;-59
2022/04/24 10:38:17;;;;;;;14.20;5.95;;;;;;;15.81;52.27;100685.34;5021418;28;20029;-62
2022/04/24 10:40:42;;;;;;;11.60;6.50;;;;;;;16.06;51.52;100689.22;5016672;28;20105;-61
2022/04/24 10:43:08;;;;;;;9.32;6.65;;;;;;;15.96;52.52;100691.59;5018537;28;20112;-61
2022/04/24 10:45:45;;;;;;;8.18;5.85;;;;;;;15.66;52.13;100684.44;5020933;28;20452;-62
2022/04/24 10:48:17;;;;;;;13.80;7.00;;;;;;;15.82;52.68;100691.47;5018011;28;20026;-67
2022/04/24 10:50:49;;;;;;;13.57;6.40;;;;;;;16.42;51.71;100687.97;5010542;28;20033;-55
2022/04/24 10:53:15;;;;;;;8.43;6.45;;;;;;;16.58;51.41;100691.47;5008060;28;20514;-57
2022/04/24 10:55:42;;;;;;;7.18;5.82;;;;;;;16.85;50.67;100680.91;5015971;28;20034;-55
2022/04/24 10:58:07;;;;;;;13.00;6.28;;;;;;;16.64;49.45;100678.63;5017457;28;20118;-55
2022/04/24 11:00:38;;;;;;;12.75;6.10;;;;;;;16.44;49.09;100685.19;5016044;28;20176;-52
2022/04/24 11:03:07;;;;;;;12.40;6.30;;;;;;;16.93;48.79;100691.06;5016974;28;20126;-56
2022/04/24 11:05:37;;;;;;;9.50;6.10;;;;;;;16.87;48.94;100689.66;5021425;28;20042;-57
2022/04/24 11:08:04;;;;;;;9.80;5.75;;;;;;;17.40;48.72;100690.81;5017181;28;20342;-57
2022/04/24 11:10:36;;;;;;;9.65;6.10;;;;;;;17.05;48.03;100681.44;5015546;28;20368;-57
2022/04/24 11:13:02;;;;;;;8.48;6.28;;;;;;;16.71;49.03;100684.44;5017166;28;20033;-58
2022/04/24 11:15:27;;;;;;;7.93;5.80;;;;;;;17.09;47.73;100682.97;5019771;28;20041;-57
2022/04/24 11:17:53;;;;;;;10.13;6.18;;;;;;;17.14;47.87;100675.56;5017263;28;20032;-57